Pagrindinis puslapis
METAR-TAF:

METAR-TAF

Oro uostai :

Kunmingas, Kinija

platuma: 25-01N, ilguma: 102-41E, Aukštis: 1892 m

Dabartinis oras

Ataskaita buvo paskelbta 1 valandą ir 8 minutes, ne 09:00 UTC
Vėjas 14 kt iš Pietvakarių
Temperatūra 17°C
Drėgmė 48%
Slėgis 1021 hPa
Matomumas 10 km arba daugiau
Išsisklaidę debesys ne aukštis 2600 ft

METAR: ZPPP 190900Z 22007MPS 9999 SCT026 17/06 Q1021 NOSIG

Laikas: 18:08 (10:08 UTC)

Prognozė

Ataskaita buvo paskelbta 8 valandos ir 56 minutes, ne 01:12 UTC
Prognozė galioja nuo 19 metu 06 UTC su 20 metu 06 UTC
Vėjas 12 kt iš Pietvakarių
Matomumas 10 km arba daugiau
Išsisklaidę debesys ne aukštis 2000 ft
Su prošvaistėmis ne aukštis 3300 ft

TAF: ZPPP 190112Z 1906/2006 22006MPS 9999 SCT020 BKN033 TX18/1908Z TN09/1923Z

Orai ataskaitas ir orų prognozės (METAR, TAF).

turimą stotys yra geltonos ir raudonos taškus žemėlapyje.

Perkelti pele per norėdami pamatyti stoties vardą.

Tada spustelėkite, norėdami matyti oro stebėjimo ir prognozės.

Norėdami pakeisti žemėlapį: spustelėkite ant žalios mygtukų su juodo kryžiaus žemyn,; žalią mygtuką su brūkšneliu, jei norite nutolinti; arba žalių rodyklių gretimoms žemėlapius.


METAR-TAF: